Currently 47°F in Anza, California, USA
47°F
47°F / 41°F
calm
0.00"
Sunday, December 15, 2019 10:49 AM PST

Anza, California Weather Summary
Last 36 Hours

Temperature Winds Hourly Humidity Dewpoint
Time Report Norm Report Norm Max Gusts Precip. Rpt. Norm Rpt. Norm Pressure
1Sun 10:49 AM  47.2°F  55°F  calm  8 mph  15 mph  0.00"  81%  50%  41°F  36°F  N/A
2Sun 10:47 AM  47.3°F  55°F  calm  8 mph  15 mph  ----  82%  50%  42°F  36°F  N/A
Sun 10:00 AM  45.4°F  53°F  12 mph W  8 mph  22 mph  0.00"  90%  53%  42°F  36°F  N/A
Sun 09:00 AM  43.0°F  50°F  12 mph NW  7 mph  24 mph  0.00"  98%  58%  42°F  35°F  N/A
Sun 08:00 AM  42.2°F  46°F  16 mph W  5 mph  23 mph  0.00"  98%  64%  42°F  34°F  N/A
3Sun 07:22 AM  41.1°F  43°F  15 mph W  4 mph  21 mph  ----  100%  68%  41°F  32°F  N/A
Sun 07:00 AM  41.6°F  42°F  14 mph W  4 mph  21 mph  0.00"  100%  69%  42°F  32°F  N/A
Sun 06:00 AM  42.2°F  41°F  16 mph W  4 mph  23 mph  0.00"  99%  70%  42°F  32°F  N/A
Sun 05:00 AM  42.5°F  41°F  14 mph W  4 mph  22 mph  0.00"  100%  70%  42°F  32°F  N/A
Sun 04:00 AM  42.7°F  41°F  15 mph W  4 mph  25 mph  0.00"  100%  71%  43°F  32°F  N/A
Sun 03:00 AM  42.5°F  41°F  14 mph W  4 mph  25 mph  0.00"  100%  71%  42°F  32°F  N/A
Sun 02:00 AM  42.1°F  41°F  15 mph W  5 mph  22 mph  0.00"  100%  71%  42°F  32°F  N/A
Sun 01:00 AM  43.0°F  41°F  15 mph W  5 mph  23 mph  0.00"  100%  72%  43°F  33°F  N/A
Sun 12:00 AM  42.5°F  42°F  13 mph W  4 mph  21 mph  0.00"  100%  72%  42°F  33°F  N/A
Sat 11:00 PM  42.3°F  42°F  15 mph W  4 mph  20 mph  0.00"  99%  71%  42°F  33°F  N/A
Sat 10:00 PM  42.5°F  42°F  10 mph NW  4 mph  18 mph  0.00"  100%  71%  42°F  33°F  N/A
Sat 09:00 PM  43.5°F  43°F  calm  4 mph  15 mph  0.00"  99%  70%  43°F  34°F  N/A
Sat 08:00 PM  44.9°F  44°F  5 mph NW  4 mph  17 mph  0.00"  99%  69%  45°F  34°F  N/A
Sat 07:00 PM  45.1°F  45°F  12 mph W  5 mph  18 mph  0.00"  99%  68%  45°F  34°F  N/A
Sat 06:00 PM  46.0°F  46°F  12 mph W  5 mph  19 mph  0.00"  98%  65%  45°F  35°F  N/A
Sat 05:00 PM  46.8°F  49°F  14 mph W  5 mph  25 mph  0.00"  97%  61%  46°F  35°F  N/A
Sat 04:00 PM  48.1°F  53°F  16 mph W  7 mph  23 mph  0.00"  95%  53%  47°F  36°F  N/A
Sat 03:00 PM  48.5°F  56°F  16 mph W  8 mph  21 mph  0.00"  96%  49%  47°F  36°F  N/A
Sat 02:00 PM  48.7°F  57°F  15 mph W  8 mph  19 mph  0.00"  97%  47%  48°F  36°F  N/A
Sat 01:00 PM  50.4°F  57°F  15 mph W  8 mph  21 mph  0.00"  96%  47%  49°F  36°F  N/A
Sat 12:00 PM  53.3°F  57°F  15 mph W  8 mph  18 mph  0.00"  90%  47%  50°F  36°F  N/A
Sat 11:00 AM  52.2°F  56°F  14 mph W  8 mph  20 mph  0.00"  95%  48%  51°F  36°F  N/A
Sat 10:00 AM  55.5°F  54°F  15 mph W  8 mph  22 mph  0.00"  87%  51%  51°F  35°F  N/A
Sat 09:00 AM  53.2°F  51°F  14 mph W  7 mph  18 mph  0.00"  93%  57%  51°F  35°F  N/A
Sat 08:00 AM  49.9°F  47°F  calm  5 mph  none  0.00"  97%  63%  49°F  34°F  N/A
Sat 07:00 AM  46.4°F  42°F  calm  4 mph  17 mph  0.00"  98%  68%  46°F  32°F  N/A
Sat 06:00 AM  46.7°F  42°F  8 mph NW  4 mph  18 mph  0.00"  97%  69%  46°F  32°F  N/A
Sat 05:00 AM  48.7°F  42°F  11 mph NW  4 mph  16 mph  0.00"  95%  70%  47°F  32°F  N/A
Sat 04:00 AM  47.8°F  42°F  calm  4 mph  none  0.00"  95%  70%  46°F  32°F  N/A
Sat 03:00 AM  46.5°F  41°F  calm  4 mph  12 mph  0.00"  95%  71%  45°F  32°F  N/A
Sat 02:00 AM  47.6°F  42°F  calm  4 mph  none  0.00"  93%  71%  45°F  32°F  N/A
Sat 01:00 AM  47.9°F  42°F  calm  4 mph  none  0.00"  92%  71%  46°F  33°F  N/A
Sat 12:00 AM  48.2°F  42°F  calm  4 mph  13 mph  0.00"  89%  71%  45°F  33°F  N/A
Fri 11:00 PM  49.1°F  42°F  calm  4 mph  none  0.00"  87%  71%  45°F  33°F  N/A

  1. Current weather data. No green row appears if the current weather data is also the high or low for the current day.
  2. High temperature for the current day.
  3. Low temperature for the current day.

The Anza, California weather pages are a service of WeatherCurrents. The Anza Valley is southwestern Riverside County, east of Temecula and Aguanga, south of Mount San Jacinto and west of Mount Santa Rosa.
Copyright ©2019  WeatherCurrents. All rights reserved. - Submit questions and comments - Privacy Policy

This page automatically refreshes every 10 minutes.